Time,TemperatureF,DewpointF,PressureIn,WindDirection,WindDirectionDegrees,WindSpeedMPH,WindSpeedGustMPH,Humidity,HourlyPrecipIn,Conditions,Clouds,dailyrainin,SoftwareType,DateUTC
2013-12-05 00:03:00,65.0,62.6,29.80,SSW,202,0.0,0.0,92,0.00,,---,0.00,VWS V14.00,2013-12-05 06:03:00,
2013-12-05 00:08:00,65.0,62.6,29.81,SW,225,0.0,0.0,92,0.00,,---,0.00,VWS V14.00,2013-12-05 06:08:00,
2013-12-05 00:13:00,65.0,62.6,29.81,SW,225,0.0,0.0,92,0.00,,---,0.00,VWS V14.00,2013-12-05 06:13:00,
2013-12-05 00:18:00,65.0,62.6,29.81,SW,225,0.0,0.0,92,0.00,,---,0.00,VWS V14.00,2013-12-05 06:18:00,
2013-12-05 00:23:00,65.0,62.9,29.81,SW,225,0.0,0.0,93,0.00,,---,0.00,VWS V14.00,2013-12-05 06:23:00,
2013-12-05 00:28:00,64.0,61.9,29.81,SW,225,0.0,0.0,93,0.00,,---,0.00,VWS V14.00,2013-12-05 06:28:00,
2013-12-05 00:33:00,64.0,61.9,29.82,SSW,202,0.0,0.0,93,0.00,,---,0.00,VWS V14.00,2013-12-05 06:33:00,
2013-12-05 00:38:00,65.0,62.9,29.81,South,180,0.0,0.0,93,0.00,,---,0.00,VWS V14.00,2013-12-05 06:38:00,
2013-12-05 00:43:00,64.0,61.9,29.81,SW,225,0.0,0.0,93,0.00,,---,0.00,VWS V14.00,2013-12-05 06:43:00,
2013-12-05 00:48:00,64.0,61.9,29.81,WSW,248,0.0,0.0,93,0.00,,---,0.00,VWS V14.00,2013-12-05 06:48:00,
2013-12-05 00:53:00,64.0,61.9,29.81,WSW,248,0.0,0.0,93,0.00,,---,0.00,VWS V14.00,2013-12-05 06:53:00,
2013-12-05 00:58:00,64.0,62.2,29.81,WSW,248,0.0,0.0,94,0.00,,---,0.00,VWS V14.00,2013-12-05 06:58:00,
2013-12-05 01:03:00,64.0,61.9,29.81,WSW,248,0.0,0.0,93,0.00,,---,0.00,VWS V14.00,2013-12-05 07:03:00,
2013-12-05 01:08:00,64.0,61.9,29.81,WSW,248,0.0,0.0,93,0.00,,---,0.00,VWS V14.00,2013-12-05 07:08:00,
2013-12-05 01:13:00,64.0,61.9,29.81,WSW,248,0.0,0.0,93,0.00,,---,0.00,VWS V14.00,2013-12-05 07:13:00,
2013-12-05 01:18:00,64.0,61.6,29.82,WNW,292,0.0,0.0,92,0.00,,---,0.00,VWS V14.00,2013-12-05 07:18:00,
2013-12-05 01:23:00,61.0,58.0,29.83,NW,315,3.0,9.0,90,0.00,,---,0.00,VWS V14.00,2013-12-05 07:23:00,
2013-12-05 01:28:00,58.0,54.2,29.82,NNW,338,13.0,14.0,87,0.00,,---,0.00,VWS V14.00,2013-12-05 07:28:00,
2013-12-05 01:33:00,57.0,52.9,29.83,NNW,338,10.0,12.0,86,0.00,,---,0.00,VWS V14.00,2013-12-05 07:33:00,
2013-12-05 01:38:00,57.0,52.5,29.82,SSE,158,0.0,1.0,85,0.00,,---,0.00,VWS V14.00,2013-12-05 07:38:00,
2013-12-05 01:43:00,56.0,51.6,29.83,NNW,338,7.0,10.0,85,0.00,,---,0.00,VWS V14.00,2013-12-05 07:43:00,
2013-12-05 01:48:00,56.0,51.9,29.84,NW,315,0.0,3.0,86,0.00,,---,0.00,VWS V14.00,2013-12-05 07:48:00,
2013-12-05 01:53:00,56.0,51.9,29.85,WNW,292,7.0,10.0,86,0.00,,---,0.00,VWS V14.00,2013-12-05 07:53:00,
2013-12-05 01:58:00,55.0,50.9,29.84,NW,315,0.0,0.0,86,0.00,,---,0.00,VWS V14.00,2013-12-05 07:58:00,
2013-12-05 02:03:00,54.0,50.2,29.84,NNW,338,9.0,13.0,87,0.00,,---,0.00,VWS V14.00,2013-12-05 08:03:00,
2013-12-05 02:08:00,54.0,50.8,29.84,WNW,292,0.0,3.0,89,0.00,,---,0.00,VWS V14.00,2013-12-05 08:08:00,
2013-12-05 02:13:00,53.0,50.2,29.85,NNW,338,6.0,11.0,90,0.00,,---,0.00,VWS V14.00,2013-12-05 08:13:00,
2013-12-05 02:18:00,53.0,50.5,29.86,NW,315,11.0,12.0,91,0.00,,---,0.00,VWS V14.00,2013-12-05 08:18:00,
2013-12-05 02:23:00,52.0,49.5,29.86,NNW,338,9.0,11.0,91,0.00,,---,0.00,VWS V14.00,2013-12-05 08:23:00,
2013-12-05 02:28:00,52.0,49.8,29.86,NW,315,6.0,13.0,92,0.00,,---,0.00,VWS V14.00,2013-12-05 08:28:00,
2013-12-05 02:33:00,51.0,48.8,29.86,NNW,338,5.0,9.0,92,0.00,,---,0.00,VWS V14.00,2013-12-05 08:33:00,
2013-12-05 02:38:00,51.0,49.0,29.86,NNW,338,8.0,13.0,93,0.00,,---,0.00,VWS V14.00,2013-12-05 08:38:00,
2013-12-05 02:43:00,51.0,49.3,29.86,NNW,338,13.0,13.0,94,0.00,,---,0.00,VWS V14.00,2013-12-05 08:43:00,
2013-12-05 02:48:00,50.0,48.3,29.87,NW,315,7.0,12.0,94,0.00,,---,0.00,VWS V14.00,2013-12-05 08:48:00,
2013-12-05 02:53:00,50.0,48.3,29.88,NW,315,6.0,8.0,94,0.00,,---,0.00,VWS V14.00,2013-12-05 08:53:00,
2013-12-05 02:58:00,50.0,48.3,29.88,NW,315,0.0,0.0,94,0.00,,---,0.00,VWS V14.00,2013-12-05 08:58:00,
2013-12-05 03:03:00,50.0,48.3,29.88,NNW,338,16.0,16.0,94,0.00,,---,0.00,VWS V14.00,2013-12-05 09:03:00,
2013-12-05 03:08:00,49.0,47.3,29.88,NW,315,8.0,11.0,94,0.00,,---,0.00,VWS V14.00,2013-12-05 09:08:00,
2013-12-05 03:13:00,49.0,47.3,29.88,NNW,338,8.0,10.0,94,0.00,,---,0.00,VWS V14.00,2013-12-05 09:13:00,
2013-12-05 03:17:00,49.0,47.6,29.88,ESE,112,0.0,1.0,95,0.00,,---,0.00,VWS V14.00,2013-12-05 09:17:00,
2013-12-05 03:22:00,49.0,47.6,29.88,NNW,338,3.0,10.0,95,0.00,,---,0.00,VWS V14.00,2013-12-05 09:22:00,
2013-12-05 03:27:00,49.0,47.6,29.88,NNW,338,0.0,0.0,95,0.00,,---,0.00,VWS V14.00,2013-12-05 09:27:00,
2013-12-05 03:32:00,49.0,47.9,29.89,NNW,338,0.0,10.0,96,0.00,,---,0.00,VWS V14.00,2013-12-05 09:32:00,
2013-12-05 03:37:00,49.0,47.9,29.89,NW,315,0.0,1.0,96,0.00,,---,0.00,VWS V14.00,2013-12-05 09:37:00,
2013-12-05 03:42:00,49.0,47.9,29.90,NW,315,6.0,6.0,96,0.00,,---,0.00,VWS V14.00,2013-12-05 09:42:00,
2013-12-05 03:47:00,49.0,47.9,29.90,NNW,338,4.0,6.0,96,0.00,,---,0.00,VWS V14.00,2013-12-05 09:47:00,
2013-12-05 03:52:00,49.0,47.9,29.89,NNW,338,16.0,18.0,96,0.00,,---,0.00,VWS V14.00,2013-12-05 09:52:00,
2013-12-05 03:57:00,49.0,47.6,29.89,NNE,22,10.0,14.0,95,0.00,,---,0.00,VWS V14.00,2013-12-05 09:57:00,
2013-12-05 04:02:00,49.0,47.3,29.90,NW,315,10.0,12.0,94,0.00,,---,0.00,VWS V14.00,2013-12-05 10:02:00,
2013-12-05 04:07:00,48.0,46.4,29.91,NW,315,11.0,18.0,94,0.00,,---,0.00,VWS V14.00,2013-12-05 10:07:00,
2013-12-05 04:12:00,48.0,46.1,29.91,NNE,22,11.0,18.0,93,0.00,,---,0.00,VWS V14.00,2013-12-05 10:12:00,
2013-12-05 04:17:00,48.0,45.8,29.92,NNW,338,13.0,17.0,92,0.00,,---,0.00,VWS V14.00,2013-12-05 10:17:00,
2013-12-05 04:22:00,47.0,44.8,29.92,NW,315,9.0,13.0,92,0.00,,---,0.00,VWS V14.00,2013-12-05 10:22:00,
2013-12-05 04:27:00,47.0,44.5,29.92,NW,315,11.0,15.0,91,0.00,,---,0.00,VWS V14.00,2013-12-05 10:27:00,
2013-12-05 04:32:00,47.0,44.5,29.92,NW,315,13.0,14.0,91,0.00,,---,0.00,VWS V14.00,2013-12-05 10:32:00,
2013-12-05 04:37:00,47.0,44.5,29.92,NNW,338,10.0,11.0,91,0.00,,---,0.00,VWS V14.00,2013-12-05 10:37:00,
2013-12-05 04:42:00,47.0,44.5,29.92,NNW,338,8.0,11.0,91,0.00,,---,0.00,VWS V14.00,2013-12-05 10:42:00,
2013-12-05 04:47:00,47.0,44.5,29.93,NW,315,16.0,16.0,91,0.00,,---,0.00,VWS V14.00,2013-12-05 10:47:00,
2013-12-05 04:52:00,47.0,44.5,29.94,WNW,292,8.0,14.0,91,0.00,,---,0.00,VWS V14.00,2013-12-05 10:52:00,
2013-12-05 04:57:00,47.0,44.5,29.93,NNE,22,11.0,14.0,91,0.00,,---,0.00,VWS V14.00,2013-12-05 10:57:00,
2013-12-05 05:02:00,47.0,44.5,29.94,NW,315,6.0,7.0,91,0.00,,---,0.00,VWS V14.00,2013-12-05 11:02:00,
2013-12-05 05:07:00,47.0,44.5,29.94,NNW,338,10.0,11.0,91,0.00,,---,0.00,VWS V14.00,2013-12-05 11:07:00,
2013-12-05 05:12:00,47.0,44.5,29.94,NW,315,11.0,15.0,91,0.00,,---,0.00,VWS V14.00,2013-12-05 11:12:00,
2013-12-05 05:17:00,46.0,43.5,29.95,North,0,14.0,14.0,91,0.00,,---,0.00,VWS V14.00,2013-12-05 11:17:00,
2013-12-05 05:22:00,46.0,43.2,29.95,North,0,9.0,18.0,90,0.00,,---,0.00,VWS V14.00,2013-12-05 11:22:00,
2013-12-05 05:27:00,46.0,43.2,29.95,NNW,338,12.0,16.0,90,0.00,,---,0.00,VWS V14.00,2013-12-05 11:27:00,
2013-12-05 05:32:00,45.0,42.2,29.95,North,0,1.0,11.0,90,0.00,,---,0.00,VWS V14.00,2013-12-05 11:32:00,
2013-12-05 05:37:00,45.0,42.2,29.96,NNW,338,11.0,11.0,90,0.00,,---,0.00,VWS V14.00,2013-12-05 11:37:00,
2013-12-05 05:42:00,44.0,41.3,29.96,NNW,338,15.0,16.0,90,0.00,,---,0.00,VWS V14.00,2013-12-05 11:42:00,
2013-12-05 05:47:00,44.0,41.0,29.96,NW,315,16.0,16.0,89,0.00,,---,0.00,VWS V14.00,2013-12-05 11:47:00,
2013-12-05 05:52:00,43.0,40.0,29.97,NW,315,16.0,16.0,89,0.00,,---,0.00,VWS V14.00,2013-12-05 11:52:00,
2013-12-05 05:57:00,43.0,39.7,29.97,NW,315,14.0,14.0,88,0.00,,---,0.00,VWS V14.00,2013-12-05 11:57:00,
2013-12-05 06:02:00,42.0,39.0,29.98,NW,315,8.0,8.0,89,0.00,,---,0.00,VWS V14.00,2013-12-05 12:02:00,
2013-12-05 06:07:00,41.0,38.3,29.97,NNW,338,10.0,10.0,90,0.02,,---,0.02,VWS V14.00,2013-12-05 12:07:00,
2013-12-05 06:12:00,41.0,38.6,29.99,NW,315,10.0,10.0,91,0.03,,---,0.03,VWS V14.00,2013-12-05 12:12:00,
2013-12-05 06:17:00,41.0,38.9,29.99,NW,315,8.0,10.0,92,0.03,,---,0.03,VWS V14.00,2013-12-05 12:17:00,
2013-12-05 06:22:00,40.0,37.9,30.00,NNW,338,8.0,8.0,92,0.08,,---,0.08,VWS V14.00,2013-12-05 12:22:00,
2013-12-05 06:27:00,40.0,38.1,29.99,NNW,338,14.0,17.0,93,0.10,,---,0.10,VWS V14.00,2013-12-05 12:27:00,
2013-12-05 06:32:00,40.0,38.1,30.01,NW,315,7.0,8.0,93,0.10,,---,0.10,VWS V14.00,2013-12-05 12:32:00,
2013-12-05 06:37:00,40.0,38.1,30.01,NNW,338,14.0,14.0,93,0.10,,---,0.10,VWS V14.00,2013-12-05 12:37:00,
2013-12-05 06:42:00,40.0,38.1,30.02,NW,315,7.0,7.0,93,0.10,,---,0.10,VWS V14.00,2013-12-05 12:42:00,
2013-12-05 06:47:00,40.0,38.1,30.02,NW,315,9.0,18.0,93,0.10,,---,0.10,VWS V14.00,2013-12-05 12:47:00,
2013-12-05 06:52:00,40.0,37.9,30.02,NW,315,1.0,10.0,92,0.10,,---,0.10,VWS V14.00,2013-12-05 12:52:00,
2013-12-05 06:57:00,40.0,37.9,30.02,NW,315,6.0,12.0,92,0.10,,---,0.10,VWS V14.00,2013-12-05 12:57:00,
2013-12-05 07:02:00,39.0,36.6,30.02,NW,315,13.0,18.0,91,0.10,,---,0.10,VWS V14.00,2013-12-05 13:02:00,
2013-12-05 07:07:00,39.0,36.3,30.02,NNW,338,12.0,16.0,90,0.08,,---,0.10,VWS V14.00,2013-12-05 13:07:00,
2013-12-05 07:12:00,39.0,36.0,30.02,NNW,338,13.0,14.0,89,0.07,,---,0.10,VWS V14.00,2013-12-05 13:12:00,
2013-12-05 07:17:00,39.0,36.0,30.02,NW,315,8.0,12.0,89,0.07,,---,0.10,VWS V14.00,2013-12-05 13:17:00,
2013-12-05 07:22:00,39.0,36.0,30.03,NNW,338,7.0,12.0,89,0.02,,---,0.10,VWS V14.00,2013-12-05 13:22:00,
2013-12-05 07:27:00,39.0,36.0,30.04,NW,315,2.0,13.0,89,0.00,,---,0.10,VWS V14.00,2013-12-05 13:27:00,
2013-12-05 07:32:00,39.0,36.0,30.04,NNW,338,12.0,12.0,89,0.00,,---,0.10,VWS V14.00,2013-12-05 13:32:00,
2013-12-05 07:37:00,39.0,36.0,30.04,NNW,338,10.0,14.0,89,0.00,,---,0.10,VWS V14.00,2013-12-05 13:37:00,
2013-12-05 07:42:00,39.0,36.0,30.05,NNW,338,10.0,16.0,89,0.00,,---,0.10,VWS V14.00,2013-12-05 13:42:00,
2013-12-05 07:47:00,39.0,35.8,30.05,NNW,338,11.0,14.0,88,0.00,,---,0.10,VWS V14.00,2013-12-05 13:47:00,
2013-12-05 07:52:00,38.0,34.5,30.05,NW,315,10.0,13.0,87,0.00,,---,0.10,VWS V14.00,2013-12-05 13:52:00,
2013-12-05 07:57:00,39.0,35.8,30.05,West,270,0.0,11.0,88,0.00,,---,0.10,VWS V14.00,2013-12-05 13:57:00,
2013-12-05 08:02:00,38.0,34.8,30.05,NW,315,13.0,13.0,88,0.00,,---,0.10,VWS V14.00,2013-12-05 14:02:00,
2013-12-05 08:07:00,38.0,34.8,30.05,NNW,338,10.0,14.0,88,0.00,,---,0.10,VWS V14.00,2013-12-05 14:07:00,
2013-12-05 08:12:00,38.0,34.5,30.06,NW,315,16.0,18.0,87,0.00,,---,0.10,VWS V14.00,2013-12-05 14:12:00,
2013-12-05 08:17:00,37.0,33.2,30.06,NNW,338,16.0,19.0,86,0.00,,---,0.10,VWS V14.00,2013-12-05 14:17:00,
2013-12-05 08:22:00,37.0,32.9,30.06,WNW,292,5.0,14.0,85,0.00,,---,0.10,VWS V14.00,2013-12-05 14:22:00,
2013-12-05 08:27:00,37.0,32.9,30.06,NNW,338,12.0,18.0,85,0.00,,---,0.10,VWS V14.00,2013-12-05 14:27:00,
2013-12-05 08:32:00,37.0,32.9,30.08,NNW,338,19.0,19.0,85,0.00,,---,0.10,VWS V14.00,2013-12-05 14:32:00,
2013-12-05 08:37:00,37.0,32.9,30.09,NW,315,10.0,13.0,85,0.00,,---,0.10,VWS V14.00,2013-12-05 14:37:00,
2013-12-05 08:42:00,37.0,32.9,30.09,NW,315,13.0,18.0,85,0.00,,---,0.10,VWS V14.00,2013-12-05 14:42:00,
2013-12-05 08:47:00,37.0,32.9,30.09,NW,315,15.0,16.0,85,0.00,,---,0.10,VWS V14.00,2013-12-05 14:47:00,
2013-12-05 08:52:00,37.0,33.2,30.09,NE,45,5.0,14.0,86,0.00,,---,0.10,VWS V14.00,2013-12-05 14:52:00,
2013-12-05 08:57:00,36.0,31.9,30.10,NW,315,12.0,15.0,85,0.00,,---,0.10,VWS V14.00,2013-12-05 14:57:00,
2013-12-05 09:02:00,36.0,31.9,30.10,NW,315,11.0,15.0,85,0.00,,---,0.10,VWS V14.00,2013-12-05 15:02:00,
2013-12-05 09:07:00,36.0,31.9,30.10,NNW,338,9.0,14.0,85,0.00,,---,0.10,VWS V14.00,2013-12-05 15:07:00,
2013-12-05 09:12:00,36.0,31.6,30.11,NNW,338,9.0,15.0,84,0.00,,---,0.10,VWS V14.00,2013-12-05 15:12:00,
2013-12-05 09:17:00,35.0,30.4,30.10,NNW,338,12.0,19.0,83,0.00,,---,0.10,VWS V14.00,2013-12-05 15:17:00,
2013-12-05 09:22:00,35.0,30.4,30.10,NNW,338,11.0,18.0,83,0.00,,---,0.10,VWS V14.00,2013-12-05 15:22:00,
2013-12-05 09:27:00,35.0,30.7,30.12,NNW,338,9.0,11.0,84,0.00,,---,0.10,VWS V14.00,2013-12-05 15:27:00,
2013-12-05 09:32:00,35.0,30.7,30.12,NW,315,12.0,14.0,84,0.00,,---,0.10,VWS V14.00,2013-12-05 15:32:00,
2013-12-05 09:37:00,35.0,31.0,30.12,NNW,338,10.0,18.0,85,0.00,,---,0.10,VWS V14.00,2013-12-05 15:37:00,
2013-12-05 09:42:00,35.0,31.0,30.12,NE,45,0.0,18.0,85,0.00,,---,0.10,VWS V14.00,2013-12-05 15:42:00,
2013-12-05 09:47:00,35.0,31.0,30.12,NW,315,4.0,10.0,85,0.00,,---,0.10,VWS V14.00,2013-12-05 15:47:00,
2013-12-05 09:52:00,34.0,30.0,30.12,NNW,338,8.0,15.0,85,0.00,,---,0.10,VWS V14.00,2013-12-05 15:52:00,
2013-12-05 09:57:00,35.0,31.2,30.12,SSE,158,0.0,3.0,86,0.00,,---,0.10,VWS V14.00,2013-12-05 15:57:00,
2013-12-05 10:02:00,34.0,30.0,30.11,WSW,248,3.0,9.0,85,0.00,,---,0.10,VWS V14.00,2013-12-05 16:02:00,
2013-12-05 10:07:00,34.0,30.3,30.11,WSW,248,0.0,9.0,86,0.00,,---,0.10,VWS V14.00,2013-12-05 16:07:00,
2013-12-05 10:12:00,34.0,30.3,30.12,North,0,5.0,5.0,86,0.00,,---,0.10,VWS V14.00,2013-12-05 16:12:00,
2013-12-05 10:17:00,34.0,30.3,30.12,NNW,338,13.0,13.0,86,0.00,,---,0.10,VWS V14.00,2013-12-05 16:17:00,
2013-12-05 10:22:00,34.0,30.3,30.11,SSW,202,1.0,2.0,86,0.00,,---,0.10,VWS V14.00,2013-12-05 16:22:00,
2013-12-05 10:27:00,34.0,30.5,30.10,WNW,292,0.0,9.0,87,0.00,,---,0.10,VWS V14.00,2013-12-05 16:27:00,
2013-12-05 10:32:00,34.0,30.5,30.10,North,0,1.0,5.0,87,0.00,,---,0.10,VWS V14.00,2013-12-05 16:32:00,
2013-12-05 10:37:00,34.0,30.5,30.10,ESE,112,3.0,4.0,87,0.00,,---,0.10,VWS V14.00,2013-12-05 16:37:00,
2013-12-05 10:42:00,34.0,30.3,30.10,SSE,158,0.0,3.0,86,0.00,,---,0.10,VWS V14.00,2013-12-05 16:42:00,
2013-12-05 10:47:00,34.0,30.3,30.10,NW,315,8.0,8.0,86,0.00,,---,0.10,VWS V14.00,2013-12-05 16:47:00,
2013-12-05 10:52:00,34.0,30.3,30.10,East,90,5.0,8.0,86,0.00,,---,0.10,VWS V14.00,2013-12-05 16:52:00,
2013-12-05 10:57:00,34.0,30.3,30.10,SW,225,0.0,4.0,86,0.00,,---,0.10,VWS V14.00,2013-12-05 16:57:00,
2013-12-05 11:02:00,34.0,30.3,30.09,NW,315,1.0,11.0,86,0.00,,---,0.10,VWS V14.00,2013-12-05 17:02:00,
2013-12-05 11:07:00,34.0,30.3,30.11,NNW,338,8.0,14.0,86,0.00,,---,0.10,VWS V14.00,2013-12-05 17:07:00,
2013-12-05 11:12:00,34.0,30.3,30.12,NW,315,8.0,17.0,86,0.00,,---,0.10,VWS V14.00,2013-12-05 17:12:00,
2013-12-05 11:17:00,33.0,29.6,30.12,NW,315,11.0,16.0,87,0.00,,---,0.10,VWS V14.00,2013-12-05 17:17:00,
2013-12-05 11:22:00,33.0,29.8,30.11,NW,315,6.0,16.0,88,0.00,,---,0.10,VWS V14.00,2013-12-05 17:22:00,
2013-12-05 11:27:00,33.0,29.8,30.11,NW,315,10.0,13.0,88,0.00,,---,0.10,VWS V14.00,2013-12-05 17:27:00,
2013-12-05 11:32:00,33.0,29.8,30.11,NNW,338,12.0,16.0,88,0.00,,---,0.10,VWS V14.00,2013-12-05 17:32:00,
2013-12-05 11:37:00,33.0,29.8,30.09,NNW,338,9.0,11.0,88,0.00,,---,0.10,VWS V14.00,2013-12-05 17:37:00,
2013-12-05 11:42:00,33.0,29.8,30.08,SW,225,0.0,6.0,88,0.00,,---,0.10,VWS V14.00,2013-12-05 17:42:00,
2013-12-05 11:47:00,32.0,29.1,30.09,WNW,292,2.0,14.0,89,0.00,,---,0.10,VWS V14.00,2013-12-05 17:47:00,
2013-12-05 11:52:00,32.0,29.1,30.08,North,0,3.0,14.0,89,0.00,,---,0.10,VWS V14.00,2013-12-05 17:52:00,
2013-12-05 11:57:00,32.0,29.1,30.08,North,0,11.0,14.0,89,0.00,,---,0.10,VWS V14.00,2013-12-05 17:57:00,
2013-12-05 12:02:00,33.0,30.1,30.08,NW,315,10.0,16.0,89,0.00,,---,0.10,VWS V14.00,2013-12-05 18:02:00,
2013-12-05 12:07:00,32.0,29.1,30.10,NNW,338,13.0,14.0,89,0.00,,---,0.10,VWS V14.00,2013-12-05 18:07:00,
2013-12-05 12:12:00,32.0,29.1,30.10,NNW,338,10.0,15.0,89,0.00,,---,0.10,VWS V14.00,2013-12-05 18:12:00,
2013-12-05 12:17:00,32.0,29.1,30.11,NW,315,6.0,8.0,89,0.00,,---,0.10,VWS V14.00,2013-12-05 18:17:00,
2013-12-05 12:22:00,32.0,29.1,30.11,WNW,292,5.0,9.0,89,0.00,,---,0.10,VWS V14.00,2013-12-05 18:22:00,
2013-12-05 12:27:00,32.0,29.1,30.12,NW,315,7.0,10.0,89,0.00,,---,0.10,VWS V14.00,2013-12-05 18:27:00,
2013-12-05 12:32:00,32.0,29.1,30.11,NW,315,9.0,12.0,89,0.00,,---,0.10,VWS V14.00,2013-12-05 18:32:00,
2013-12-05 12:37:00,32.0,29.1,30.12,NW,315,13.0,13.0,89,0.00,,---,0.10,VWS V14.00,2013-12-05 18:37:00,
2013-12-05 12:42:00,32.0,29.1,30.10,SW,225,0.0,11.0,89,0.00,,---,0.10,VWS V14.00,2013-12-05 18:42:00,
2013-12-05 12:47:00,32.0,29.1,30.11,NNW,338,14.0,19.0,89,0.00,,---,0.10,VWS V14.00,2013-12-05 18:47:00,
2013-12-05 12:52:00,32.0,29.1,30.12,NW,315,5.0,10.0,89,0.00,,---,0.10,VWS V14.00,2013-12-05 18:52:00,
2013-12-05 12:57:00,31.0,28.1,30.14,NW,315,13.0,16.0,89,0.00,,---,0.10,VWS V14.00,2013-12-05 18:57:00,
2013-12-05 13:02:00,31.0,28.1,30.14,NW,315,16.0,21.0,89,0.00,,---,0.10,VWS V14.00,2013-12-05 19:02:00,
2013-12-05 13:07:00,31.0,28.4,30.13,NNW,338,17.0,21.0,90,0.00,,---,0.10,VWS V14.00,2013-12-05 19:07:00,
2013-12-05 13:12:00,31.0,28.7,30.13,NNW,338,11.0,16.0,91,0.01,,---,0.11,VWS V14.00,2013-12-05 19:12:00,
2013-12-05 13:17:00,30.0,28.0,30.13,NNW,338,19.0,20.0,92,0.01,,---,0.11,VWS V14.00,2013-12-05 19:17:00,
2013-12-05 13:22:00,30.0,28.0,30.15,NNW,338,10.0,12.0,92,0.01,,---,0.11,VWS V14.00,2013-12-05 19:22:00,
2013-12-05 13:27:00,30.0,28.2,30.15,NNW,338,13.0,13.0,93,0.03,,---,0.13,VWS V14.00,2013-12-05 19:27:00,
2013-12-05 13:32:00,30.0,28.2,30.13,North,0,0.0,6.0,93,0.04,,---,0.14,VWS V14.00,2013-12-05 19:32:00,
2013-12-05 13:36:00,30.0,28.5,30.14,NNW,338,6.0,11.0,94,0.04,,---,0.14,VWS V14.00,2013-12-05 19:36:00,
2013-12-05 13:41:00,30.0,28.5,30.12,NNW,338,12.0,14.0,94,0.04,,---,0.14,VWS V14.00,2013-12-05 19:41:00,
2013-12-05 13:46:00,30.0,28.5,30.12,NNW,338,11.0,13.0,94,0.05,,---,0.15,VWS V14.00,2013-12-05 19:46:00,
2013-12-05 13:51:00,30.0,28.7,30.11,South,180,0.0,6.0,95,0.05,,---,0.15,VWS V14.00,2013-12-05 19:51:00,
2013-12-05 13:56:00,30.0,28.7,30.11,ENE,68,3.0,3.0,95,0.05,,---,0.15,VWS V14.00,2013-12-05 19:56:00,
2013-12-05 14:01:00,30.0,29.0,30.10,NW,315,4.0,4.0,96,0.05,,---,0.15,VWS V14.00,2013-12-05 20:01:00,
2013-12-05 14:06:00,30.0,29.0,30.10,West,270,0.0,1.0,96,0.05,,---,0.15,VWS V14.00,2013-12-05 20:06:00,
2013-12-05 14:11:00,30.0,29.0,30.09,NNE,22,0.0,1.0,96,0.04,,---,0.15,VWS V14.00,2013-12-05 20:11:00,
2013-12-05 14:16:00,30.0,29.0,30.09,NNW,338,2.0,6.0,96,0.04,,---,0.15,VWS V14.00,2013-12-05 20:16:00,
2013-12-05 14:21:00,30.0,29.0,30.09,WNW,292,3.0,3.0,96,0.05,,---,0.16,VWS V14.00,2013-12-05 20:21:00,
2013-12-05 14:26:00,30.0,29.2,30.10,SSW,202,0.0,4.0,97,0.04,,---,0.16,VWS V14.00,2013-12-05 20:26:00,
2013-12-05 14:31:00,30.0,29.2,30.12,WNW,292,0.0,1.0,97,0.02,,---,0.16,VWS V14.00,2013-12-05 20:31:00,
2013-12-05 14:36:00,30.0,29.2,30.13,NNW,338,11.0,11.0,97,0.02,,---,0.16,VWS V14.00,2013-12-05 20:36:00,
2013-12-05 14:41:00,30.0,29.2,30.13,NNW,338,8.0,12.0,97,0.03,,---,0.17,VWS V14.00,2013-12-05 20:41:00,
2013-12-05 14:46:00,30.0,29.2,30.13,WNW,292,1.0,6.0,97,0.02,,---,0.17,VWS V14.00,2013-12-05 20:46:00,
2013-12-05 14:51:00,30.0,29.2,30.12,NNW,338,4.0,4.0,97,0.02,,---,0.17,VWS V14.00,2013-12-05 20:51:00,
2013-12-05 14:57:00,30.0,29.5,30.13,WNW,292,2.0,2.0,98,0.02,,---,0.17,VWS V14.00,2013-12-05 20:57:00,
2013-12-05 15:01:00,30.0,29.5,30.11,NW,315,2.0,6.0,98,0.02,,---,0.17,VWS V14.00,2013-12-05 21:01:00,
2013-12-05 15:06:00,31.0,30.5,30.13,WNW,292,3.0,4.0,98,0.02,,---,0.17,VWS V14.00,2013-12-05 21:06:00,
2013-12-05 15:11:00,31.0,30.8,30.13,NNW,338,6.0,8.0,99,0.03,,---,0.18,VWS V14.00,2013-12-05 21:11:00,
2013-12-05 15:16:00,31.0,30.8,30.12,South,180,0.0,6.0,99,0.03,,---,0.18,VWS V14.00,2013-12-05 21:16:00,
2013-12-05 15:21:00,31.0,30.8,30.12,SSE,158,0.0,3.0,99,0.02,,---,0.18,VWS V14.00,2013-12-05 21:21:00,
2013-12-05 15:26:00,31.0,30.8,30.13,South,180,1.0,3.0,99,0.02,,---,0.18,VWS V14.00,2013-12-05 21:26:00,
2013-12-05 15:31:00,31.0,30.8,30.13,ENE,68,1.0,10.0,99,0.02,,---,0.18,VWS V14.00,2013-12-05 21:31:00,
2013-12-05 15:36:00,31.0,30.8,30.15,ESE,112,1.0,7.0,99,0.02,,---,0.18,VWS V14.00,2013-12-05 21:36:00,
2013-12-05 15:41:00,31.0,31.0,30.14,NW,315,0.0,1.0,100,0.01,,---,0.18,VWS V14.00,2013-12-05 21:41:00,
2013-12-05 15:46:00,31.0,31.0,30.13,ESE,112,3.0,5.0,100,0.01,,---,0.18,VWS V14.00,2013-12-05 21:46:00,
2013-12-05 15:52:00,31.0,31.0,30.13,WSW,248,0.0,5.0,100,0.01,,---,0.18,VWS V14.00,2013-12-05 21:52:00,
2013-12-05 15:57:00,31.0,31.0,30.14,NNE,22,1.0,7.0,100,0.01,,---,0.18,VWS V14.00,2013-12-05 21:57:00,
2013-12-05 16:02:00,31.0,31.0,30.15,NW,315,10.0,14.0,100,0.02,,---,0.19,VWS V14.00,2013-12-05 22:02:00,
2013-12-05 16:07:00,31.0,31.0,30.14,NW,315,6.0,16.0,100,0.02,,---,0.19,VWS V14.00,2013-12-05 22:07:00,
2013-12-05 16:12:00,30.0,30.0,30.13,WNW,292,10.0,14.0,100,0.01,,---,0.19,VWS V14.00,2013-12-05 22:12:00,
2013-12-05 16:17:00,30.0,30.0,30.14,East,90,4.0,14.0,100,0.01,,---,0.19,VWS V14.00,2013-12-05 22:17:00,
2013-12-05 16:22:00,30.0,30.0,30.15,NNW,338,10.0,20.0,100,0.01,,---,0.19,VWS V14.00,2013-12-05 22:22:00,
2013-12-05 16:26:00,30.0,30.0,30.14,ESE,112,6.0,8.0,100,0.01,,---,0.19,VWS V14.00,2013-12-05 22:26:00,
2013-12-05 16:31:00,30.0,30.0,30.15,NNW,338,6.0,10.0,100,0.01,,---,0.19,VWS V14.00,2013-12-05 22:31:00,
2013-12-05 16:36:00,29.0,28.8,30.14,NW,315,14.0,14.0,99,0.01,,---,0.19,VWS V14.00,2013-12-05 22:36:00,
2013-12-05 16:41:00,29.0,28.8,30.15,East,90,6.0,10.0,99,0.01,,---,0.19,VWS V14.00,2013-12-05 22:41:00,
2013-12-05 16:46:00,29.0,28.8,30.15,SSE,158,1.0,12.0,99,0.01,,---,0.19,VWS V14.00,2013-12-05 22:46:00,
2013-12-05 16:51:00,29.0,28.8,30.15,West,270,0.0,1.0,99,0.01,,---,0.19,VWS V14.00,2013-12-05 22:51:00,
2013-12-05 16:57:00,29.0,28.8,30.15,East,90,3.0,10.0,99,0.01,,---,0.19,VWS V14.00,2013-12-05 22:57:00,
2013-12-05 17:01:00,29.0,28.8,30.16,NNW,338,1.0,5.0,99,0.00,,---,0.19,VWS V14.00,2013-12-05 23:01:00,
2013-12-05 17:06:00,29.0,28.5,30.16,ESE,112,6.0,8.0,98,0.00,,---,0.19,VWS V14.00,2013-12-05 23:06:00,
2013-12-05 17:11:00,29.0,28.5,30.16,WNW,292,6.0,6.0,98,0.00,,---,0.19,VWS V14.00,2013-12-05 23:11:00,
2013-12-05 17:16:00,29.0,28.5,30.16,NNE,22,4.0,8.0,98,0.00,,---,0.19,VWS V14.00,2013-12-05 23:16:00,
2013-12-05 17:21:00,29.0,28.5,30.16,NNE,22,11.0,13.0,98,0.00,,---,0.19,VWS V14.00,2013-12-05 23:21:00,
2013-12-05 17:26:00,29.0,28.5,30.17,SSE,158,3.0,3.0,98,0.00,,---,0.19,VWS V14.00,2013-12-05 23:26:00,
2013-12-05 17:31:00,29.0,28.5,30.19,NNW,338,6.0,8.0,98,0.00,,---,0.19,VWS V14.00,2013-12-05 23:31:00,
2013-12-05 17:36:00,29.0,28.5,30.19,NNW,338,10.0,11.0,98,0.00,,---,0.19,VWS V14.00,2013-12-05 23:36:00,
2013-12-05 17:41:00,29.0,28.5,30.20,North,0,0.0,4.0,98,0.00,,---,0.19,VWS V14.00,2013-12-05 23:41:00,
2013-12-05 17:46:00,29.0,28.5,30.20,NNW,338,12.0,13.0,98,0.00,,---,0.19,VWS V14.00,2013-12-05 23:46:00,
2013-12-05 17:51:00,29.0,28.5,30.18,NNW,338,9.0,11.0,98,0.00,,---,0.19,VWS V14.00,2013-12-05 23:51:00,
2013-12-05 17:56:00,29.0,28.5,30.17,NW,315,8.0,16.0,98,0.00,,---,0.19,VWS V14.00,2013-12-05 23:56:00,
2013-12-05 18:01:00,29.0,28.5,30.16,North,0,2.0,11.0,98,0.00,,---,0.19,VWS V14.00,2013-12-06 00:01:00,
2013-12-05 18:06:00,29.0,28.5,30.16,SE,135,4.0,8.0,98,0.00,,---,0.19,VWS V14.00,2013-12-06 00:06:00,
2013-12-05 18:11:00,29.0,28.5,30.16,SSE,158,1.0,11.0,98,0.00,,---,0.19,VWS V14.00,2013-12-06 00:11:00,
2013-12-05 18:16:00,29.0,28.5,30.16,NNW,338,0.0,12.0,98,0.00,,---,0.19,VWS V14.00,2013-12-06 00:16:00,
2013-12-05 18:21:00,29.0,28.5,30.17,NNW,338,8.0,11.0,98,0.00,,---,0.19,VWS V14.00,2013-12-06 00:21:00,
2013-12-05 18:26:00,29.0,28.5,30.16,NNE,22,8.0,16.0,98,0.00,,---,0.19,VWS V14.00,2013-12-06 00:26:00,
2013-12-05 18:31:00,29.0,28.5,30.17,NW,315,13.0,13.0,98,0.00,,---,0.19,VWS V14.00,2013-12-06 00:31:00,
2013-12-05 18:36:00,29.0,28.8,30.16,WSW,248,6.0,8.0,99,0.00,,---,0.19,VWS V14.00,2013-12-06 00:36:00,
2013-12-05 18:41:00,29.0,28.8,30.17,NNW,338,3.0,16.0,99,0.00,,---,0.19,VWS V14.00,2013-12-06 00:41:00,
2013-12-05 18:46:00,29.0,28.8,30.16,SE,135,6.0,13.0,99,0.00,,---,0.19,VWS V14.00,2013-12-06 00:46:00,
2013-12-05 18:51:00,29.0,28.8,30.16,WNW,292,4.0,4.0,99,0.00,,---,0.19,VWS V14.00,2013-12-06 00:51:00,
2013-12-05 18:56:00,29.0,28.8,30.17,WNW,292,3.0,4.0,99,0.00,,---,0.19,VWS V14.00,2013-12-06 00:56:00,
2013-12-05 19:01:00,29.0,28.8,30.17,NW,315,1.0,1.0,99,0.00,,---,0.19,VWS V14.00,2013-12-06 01:01:00,
2013-12-05 19:06:00,29.0,28.8,30.17,SSE,158,1.0,6.0,99,0.00,,---,0.19,VWS V14.00,2013-12-06 01:06:00,
2013-12-05 19:11:00,29.0,28.5,30.17,NE,45,4.0,8.0,98,0.00,,---,0.19,VWS V14.00,2013-12-06 01:11:00,
2013-12-05 19:16:00,29.0,28.5,30.18,ESE,112,6.0,17.0,98,0.00,,---,0.19,VWS V14.00,2013-12-06 01:16:00,
2013-12-05 19:21:00,28.0,27.5,30.19,WNW,292,6.0,10.0,98,0.00,,---,0.19,VWS V14.00,2013-12-06 01:21:00,
2013-12-05 19:26:00,29.0,28.5,30.19,North,0,6.0,13.0,98,0.00,,---,0.19,VWS V14.00,2013-12-06 01:26:00,
2013-12-05 19:31:00,28.0,27.5,30.20,NW,315,5.0,5.0,98,0.00,,---,0.19,VWS V14.00,2013-12-06 01:31:00,
2013-12-05 19:36:00,28.0,27.5,30.21,NNW,338,14.0,16.0,98,0.00,,---,0.19,VWS V14.00,2013-12-06 01:36:00,
2013-12-05 19:41:00,29.0,28.5,30.23,NNW,338,14.0,14.0,98,0.00,,---,0.19,VWS V14.00,2013-12-06 01:41:00,
2013-12-05 19:46:00,28.0,27.5,30.22,WNW,292,11.0,11.0,98,0.00,,---,0.19,VWS V14.00,2013-12-06 01:46:00,
2013-12-05 19:51:00,28.0,27.5,30.21,NNW,338,15.0,17.0,98,0.00,,---,0.19,VWS V14.00,2013-12-06 01:51:00,
2013-12-05 19:56:00,29.0,28.5,30.20,NNW,338,3.0,5.0,98,0.00,,---,0.19,VWS V14.00,2013-12-06 01:56:00,
2013-12-05 20:01:00,28.0,27.3,30.21,NNW,338,16.0,18.0,97,0.00,,---,0.19,VWS V14.00,2013-12-06 02:01:00,
2013-12-05 20:06:00,28.0,27.3,30.20,NNW,338,10.0,12.0,97,0.00,,---,0.19,VWS V14.00,2013-12-06 02:06:00,
2013-12-05 20:12:00,27.0,26.3,30.19,NNW,338,15.0,15.0,97,0.00,,---,0.19,VWS V14.00,2013-12-06 02:12:00,
2013-12-05 20:17:00,27.0,26.5,30.19,NNW,338,6.0,13.0,98,0.00,,---,0.19,VWS V14.00,2013-12-06 02:17:00,
2013-12-05 20:22:00,27.0,26.5,30.18,SSE,158,3.0,8.0,98,0.00,,---,0.19,VWS V14.00,2013-12-06 02:22:00,
2013-12-05 20:27:00,27.0,26.5,30.19,South,180,5.0,8.0,98,0.00,,---,0.19,VWS V14.00,2013-12-06 02:27:00,
2013-12-05 20:32:00,27.0,26.8,30.22,WNW,292,0.0,12.0,99,0.00,,---,0.19,VWS V14.00,2013-12-06 02:32:00,
2013-12-05 20:37:00,27.0,26.8,30.21,SSE,158,0.0,6.0,99,0.00,,---,0.19,VWS V14.00,2013-12-06 02:37:00,
2013-12-05 20:42:00,27.0,26.8,30.24,SSE,158,0.0,14.0,99,0.00,,---,0.19,VWS V14.00,2013-12-06 02:42:00,
2013-12-05 20:47:00,27.0,26.8,30.22,NE,45,5.0,9.0,99,0.00,,---,0.19,VWS V14.00,2013-12-06 02:47:00,
2013-12-05 20:52:00,27.0,26.5,30.22,East,90,3.0,10.0,98,0.00,,---,0.19,VWS V14.00,2013-12-06 02:52:00,
2013-12-05 20:57:00,27.0,26.5,30.20,East,90,1.0,6.0,98,0.00,,---,0.19,VWS V14.00,2013-12-06 02:57:00,
2013-12-05 21:02:00,27.0,26.5,30.19,North,0,5.0,10.0,98,0.00,,---,0.19,VWS V14.00,2013-12-06 03:02:00,
2013-12-05 21:07:00,27.0,26.5,30.18,North,0,6.0,10.0,98,0.00,,---,0.19,VWS V14.00,2013-12-06 03:07:00,
2013-12-05 21:12:00,27.0,26.8,30.18,NE,45,5.0,6.0,99,0.00,,---,0.19,VWS V14.00,2013-12-06 03:12:00,
2013-12-05 21:17:00,27.0,26.8,30.19,NE,45,8.0,10.0,99,0.00,,---,0.19,VWS V14.00,2013-12-06 03:17:00,
2013-12-05 21:22:00,27.0,26.8,30.18,NE,45,7.0,10.0,99,0.00,,---,0.19,VWS V14.00,2013-12-06 03:22:00,
2013-12-05 21:27:00,27.0,26.8,30.18,NW,315,1.0,1.0,99,0.00,,---,0.19,VWS V14.00,2013-12-06 03:27:00,
2013-12-05 21:32:00,27.0,26.8,30.19,NNE,22,6.0,12.0,99,0.00,,---,0.19,VWS V14.00,2013-12-06 03:32:00,
2013-12-05 21:37:00,27.0,26.8,30.20,NW,315,1.0,6.0,99,0.00,,---,0.19,VWS V14.00,2013-12-06 03:37:00,
2013-12-05 21:42:00,27.0,26.8,30.21,NW,315,10.0,10.0,99,0.00,,---,0.19,VWS V14.00,2013-12-06 03:42:00,
2013-12-05 21:47:00,27.0,26.8,30.24,NNW,338,14.0,18.0,99,0.00,,---,0.19,VWS V14.00,2013-12-06 03:47:00,
2013-12-05 21:52:00,27.0,26.8,30.24,NW,315,7.0,14.0,99,0.00,,---,0.19,VWS V14.00,2013-12-06 03:52:00,
2013-12-05 21:57:00,27.0,27.0,30.22,NNW,338,0.0,4.0,100,0.00,,---,0.19,VWS V14.00,2013-12-06 03:57:00,
2013-12-05 22:02:00,27.0,26.8,30.21,NE,45,0.0,1.0,99,0.00,,---,0.19,VWS V14.00,2013-12-06 04:02:00,
2013-12-05 22:07:00,26.0,26.0,30.20,NE,45,10.0,11.0,100,0.00,,---,0.19,VWS V14.00,2013-12-06 04:07:00,
2013-12-05 22:12:00,26.0,26.0,30.21,NE,45,11.0,12.0,100,0.00,,---,0.19,VWS V14.00,2013-12-06 04:12:00,
2013-12-05 22:16:00,27.0,27.0,30.21,NE,45,4.0,4.0,100,0.00,,---,0.19,VWS V14.00,2013-12-06 04:16:00,
2013-12-05 22:21:00,26.0,26.0,30.18,SW,225,0.0,8.0,100,0.00,,---,0.19,VWS V14.00,2013-12-06 04:21:00,
2013-12-05 22:26:00,27.0,27.0,30.21,NNW,338,5.0,8.0,100,0.00,,---,0.19,VWS V14.00,2013-12-06 04:26:00,
2013-12-05 22:31:00,27.0,27.0,30.20,SE,135,0.0,3.0,100,0.00,,---,0.19,VWS V14.00,2013-12-06 04:31:00,
2013-12-05 22:36:00,27.0,27.0,30.22,NW,315,7.0,7.0,100,0.00,,---,0.19,VWS V14.00,2013-12-06 04:36:00,
2013-12-05 22:41:00,27.0,27.0,30.22,West,270,0.0,1.0,100,0.00,,---,0.19,VWS V14.00,2013-12-06 04:41:00,
2013-12-05 22:46:00,27.0,27.0,30.24,NW,315,3.0,6.0,100,0.00,,---,0.19,VWS V14.00,2013-12-06 04:46:00,
2013-12-05 22:51:00,27.0,27.0,30.23,NNW,338,9.0,11.0,100,0.00,,---,0.19,VWS V14.00,2013-12-06 04:51:00,
2013-12-05 22:56:00,27.0,27.0,30.21,NNE,22,0.0,14.0,100,0.00,,---,0.19,VWS V14.00,2013-12-06 04:56:00,
2013-12-05 23:01:00,27.0,27.0,30.21,WSW,248,6.0,7.0,100,0.00,,---,0.00,VWS V14.00,2013-12-06 05:01:00,
2013-12-05 23:06:00,27.0,27.0,30.22,North,0,6.0,13.0,100,0.00,,---,0.00,VWS V14.00,2013-12-06 05:06:00,
2013-12-05 23:11:00,27.0,27.0,30.22,NNW,338,3.0,3.0,100,0.00,,---,0.00,VWS V14.00,2013-12-06 05:11:00,
2013-12-05 23:16:00,26.0,26.0,30.20,WNW,292,0.0,4.0,100,0.00,,---,0.00,VWS V14.00,2013-12-06 05:16:00,
2013-12-05 23:21:00,26.0,26.0,30.20,East,90,5.0,5.0,100,0.00,,---,0.00,VWS V14.00,2013-12-06 05:21:00,
2013-12-05 23:26:00,26.0,26.0,30.23,West,270,0.0,1.0,100,0.00,,---,0.00,VWS V14.00,2013-12-06 05:26:00,
2013-12-05 23:31:00,26.0,26.0,30.23,NW,315,0.0,6.0,100,0.00,,---,0.00,VWS V14.00,2013-12-06 05:31:00,
2013-12-05 23:36:00,26.0,26.0,30.23,West,270,0.0,1.0,100,0.00,,---,0.00,VWS V14.00,2013-12-06 05:36:00,
2013-12-05 23:41:00,26.0,26.0,30.20,NW,315,5.0,13.0,100,0.00,,---,0.00,VWS V14.00,2013-12-06 05:41:00,
2013-12-05 23:46:00,26.0,26.0,30.18,SW,225,8.0,8.0,100,0.00,,---,0.00,VWS V14.00,2013-12-06 05:46:00,
2013-12-05 23:51:00,26.0,26.0,30.18,WNW,292,4.0,12.0,100,0.00,,---,0.00,VWS V14.00,2013-12-06 05:51:00,
2013-12-05 23:56:00,26.0,26.0,30.19,NE,45,13.0,13.0,100,0.00,,---,0.00,VWS V14.00,2013-12-06 05:56:00,